createdAt,value
2023-03-04T00:02:07.646Z,102677.66
2023-03-04T00:04:34.144Z,102673.97
2023-03-04T00:07:00.552Z,102681.03
2023-03-04T00:09:27.348Z,102684.03
2023-03-04T00:11:53.836Z,102686.00
2023-03-04T00:14:20.525Z,102683.31
2023-03-04T00:16:49.059Z,102683.31
2023-03-04T00:19:15.570Z,102678.06
2023-03-04T00:21:42.171Z,102677.81
2023-03-04T00:24:08.679Z,102681.34
2023-03-04T00:26:35.154Z,102672.59
2023-03-04T00:29:01.650Z,102676.28
2023-03-04T00:31:28.207Z,102673.59
2023-03-04T00:33:54.697Z,102677.22
2023-03-04T00:36:21.168Z,102676.28
2023-03-04T00:38:47.620Z,102679.91
2023-03-04T00:41:14.028Z,102683.59
2023-03-04T00:43:41.480Z,102680.91
2023-03-04T00:46:08.145Z,102681.63
2023-03-04T00:48:34.854Z,102680.91
2023-03-04T00:51:01.270Z,102674.84
2023-03-04T00:53:27.721Z,102676.53
2023-03-04T00:55:54.120Z,102682.91
2023-03-04T00:58:20.705Z,102682.06
2023-03-04T01:00:47.162Z,102681.91
2023-03-04T01:03:13.685Z,102681.06
2023-03-04T01:05:40.534Z,102680.06
2023-03-04T01:08:07.407Z,102676.53
2023-03-04T01:10:34.047Z,102681.22
2023-03-04T01:13:00.685Z,102681.38
2023-03-04T01:15:27.227Z,102680.53
2023-03-04T01:17:53.878Z,102685.03
2023-03-04T01:20:20.609Z,102669.78
2023-03-04T01:22:47.176Z,102671.78
2023-03-04T01:25:14.581Z,102675.16
2023-03-04T01:27:41.012Z,102676.84
2023-03-04T01:30:07.947Z,102672.78
2023-03-04T01:32:34.533Z,102670.09
2023-03-04T01:35:01.036Z,102662.19
2023-03-04T01:37:27.464Z,102655.69
2023-03-04T01:39:53.976Z,102658.38
2023-03-04T01:42:23.070Z,102657.53
2023-03-04T01:44:51.361Z,102652.00
2023-03-04T01:47:19.175Z,102656.38
2023-03-04T01:49:50.874Z,102654.69
2023-03-04T01:52:17.289Z,102639.59
2023-03-04T01:54:43.704Z,102641.81
2023-03-04T01:57:17.853Z,102639.13
2023-03-04T01:59:45.008Z,102628.53
2023-03-04T02:02:12.762Z,102624.03
2023-03-04T02:04:41.271Z,102624.03
2023-03-04T02:07:08.348Z,102616.97
2023-03-04T02:09:35.739Z,102624.03
2023-03-04T02:12:02.411Z,102623.19
2023-03-04T02:14:29.210Z,102616.81
2023-03-04T02:16:55.874Z,102611.59
2023-03-04T02:19:36.772Z,102610.47
2023-03-04T02:22:03.569Z,102604.25
2023-03-04T02:24:38.801Z,102612.13
2023-03-04T02:27:05.401Z,102605.09
2023-03-04T02:29:32.187Z,102602.41
2023-03-04T02:31:58.788Z,102603.25
2023-03-04T02:34:31.694Z,102600.41
2023-03-04T02:36:59.235Z,102600.41
2023-03-04T02:39:42.222Z,102593.19
2023-03-04T02:42:10.794Z,102594.03
2023-03-04T02:44:44.719Z,102591.66
2023-03-04T02:47:13.515Z,102586.47
2023-03-04T02:49:41.550Z,102588.59
2023-03-04T02:52:13.046Z,102590.59
2023-03-04T02:54:39.865Z,102580.03
2023-03-04T02:57:09.473Z,102585.22
2023-03-04T02:59:39.510Z,102584.81
2023-03-04T03:02:08.040Z,102593.00
2023-03-04T03:04:37.430Z,102580.59
2023-03-04T03:07:07.625Z,102579.75
2023-03-04T03:09:34.259Z,102582.59
2023-03-04T03:12:00.870Z,102569.34
2023-03-04T03:14:29.489Z,102573.69
2023-03-04T03:16:56.001Z,102575.69
2023-03-04T03:19:22.465Z,102564.97
2023-03-04T03:21:50.434Z,102565.25
2023-03-04T03:24:16.956Z,102559.06
2023-03-04T03:26:43.418Z,102557.06
2023-03-04T03:29:09.888Z,102561.59
2023-03-04T03:31:36.571Z,102557.22
2023-03-04T03:34:03.072Z,102559.75
2023-03-04T03:36:29.630Z,102561.59
2023-03-04T03:38:56.215Z,102557.22
2023-03-04T03:41:22.645Z,102553.53
2023-03-04T03:43:49.083Z,102560.59
2023-03-04T03:46:15.496Z,102558.59
2023-03-04T03:48:41.943Z,102556.91
2023-03-04T03:51:08.389Z,102555.22
2023-03-04T03:53:34.783Z,102556.06
2023-03-04T03:56:01.354Z,102557.91
2023-03-04T03:58:27.859Z,102554.06
2023-03-04T04:00:56.415Z,102559.28
2023-03-04T04:03:24.570Z,102553.09
2023-03-04T04:05:51.098Z,102556.91
2023-03-04T04:08:17.867Z,102558.91
2023-03-04T04:10:44.753Z,102571.31
2023-03-04T04:13:11.658Z,102562.28
2023-03-04T04:15:38.941Z,102565.97
2023-03-04T04:18:07.216Z,102573.00
2023-03-04T04:20:34.131Z,102563.97
2023-03-04T04:23:00.928Z,102568.34
2023-03-04T04:25:27.378Z,102562.28
2023-03-04T04:27:53.855Z,102559.91
2023-03-04T04:30:20.545Z,102562.28
2023-03-04T04:32:47.005Z,102560.44
2023-03-04T04:35:13.426Z,102571.31
2023-03-04T04:37:39.822Z,102572.31
2023-03-04T04:40:07.380Z,102569.63
2023-03-04T04:42:33.954Z,102575.84
2023-03-04T04:45:00.345Z,102569.94
2023-03-04T04:47:26.821Z,102572.63
2023-03-04T04:49:53.340Z,102573.31
2023-03-04T04:52:19.810Z,102572.63
2023-03-04T04:54:46.319Z,102570.78
2023-03-04T04:57:12.729Z,102570.78
2023-03-04T04:59:39.138Z,102566.25
2023-03-04T05:02:05.560Z,102571.94
2023-03-04T05:04:32.029Z,102569.38
2023-03-04T05:06:58.460Z,102564.88
2023-03-04T05:09:24.916Z,102560.22
2023-03-04T05:11:51.529Z,102568.25
2023-03-04T05:14:18.043Z,102565.41
2023-03-04T05:16:44.542Z,102564.56
2023-03-04T05:19:11.371Z,102560.91
2023-03-04T05:21:37.838Z,102561.59
2023-03-04T05:24:04.417Z,102563.28
2023-03-04T05:26:30.986Z,102557.91
2023-03-04T05:28:57.452Z,102561.59
2023-03-04T05:31:24.053Z,102561.44
2023-03-04T05:33:50.486Z,102564.13
2023-03-04T05:36:16.934Z,102559.44
2023-03-04T05:38:43.350Z,102560.28
2023-03-04T05:41:09.961Z,102568.50
2023-03-04T05:43:36.711Z,102571.00
2023-03-04T05:46:04.510Z,102564.81
2023-03-04T05:48:31.074Z,102571.84
2023-03-04T05:50:59.517Z,102569.03
2023-03-04T05:53:27.167Z,102564.34
2023-03-04T05:55:53.701Z,102567.88
2023-03-04T05:58:21.249Z,102567.03
2023-03-04T06:00:48.185Z,102565.34
2023-03-04T06:03:20.083Z,102565.34
2023-03-04T06:05:46.928Z,102560.81
2023-03-04T06:08:13.825Z,102560.66
2023-03-04T06:10:41.349Z,102568.72
2023-03-04T06:13:08.878Z,102568.72
2023-03-04T06:15:35.367Z,102563.34
2023-03-04T06:18:02.033Z,102571.41
2023-03-04T06:20:28.553Z,102569.59
2023-03-04T06:22:55.062Z,102566.03
2023-03-04T06:25:22.167Z,102571.28
2023-03-04T06:27:50.630Z,102566.91
2023-03-04T06:30:17.994Z,102572.13
2023-03-04T06:32:44.473Z,102572.13
2023-03-04T06:35:12.401Z,102572.13
2023-03-04T06:37:39.514Z,102576.66
2023-03-04T06:40:07.689Z,102571.28
2023-03-04T06:42:34.874Z,102582.00
2023-03-04T06:45:01.856Z,102575.50
2023-03-04T06:47:28.442Z,102578.34
2023-03-04T06:49:54.939Z,102576.50
2023-03-04T06:52:21.448Z,102579.88
2023-03-04T06:54:47.902Z,102584.22
2023-03-04T06:57:14.459Z,102583.38
2023-03-04T06:59:41.063Z,102576.34
2023-03-04T07:02:11.398Z,102582.56
2023-03-04T07:04:38.327Z,102587.06
2023-03-04T07:07:04.781Z,102584.78
2023-03-04T07:09:31.665Z,102580.34
2023-03-04T07:11:58.085Z,102590.63
2023-03-04T07:14:24.511Z,102599.53
2023-03-04T07:16:50.918Z,102597.84
2023-03-04T07:19:17.666Z,102588.09
2023-03-04T07:21:44.144Z,102593.00
2023-03-04T07:24:10.558Z,102598.53
2023-03-04T07:26:38.150Z,102593.16
2023-03-04T07:29:05.320Z,102589.72
2023-03-04T07:31:34.664Z,102589.13
2023-03-04T07:34:06.443Z,102587.91
2023-03-04T07:36:35.404Z,102596.56
2023-03-04T07:39:02.239Z,102592.50
2023-03-04T07:41:30.012Z,102590.41
2023-03-04T07:43:57.751Z,102590.41
2023-03-04T07:46:25.097Z,102590.94
2023-03-04T07:48:51.616Z,102594.56
2023-03-04T07:51:20.494Z,102597.69
2023-03-04T07:53:49.454Z,102596.69
2023-03-04T07:56:21.146Z,102597.38
2023-03-04T07:58:47.731Z,102603.66
2023-03-04T08:01:29.412Z,102596.91
2023-03-04T08:03:55.968Z,102606.81
2023-03-04T08:06:23.080Z,102604.41
2023-03-04T08:08:55.118Z,102598.97
2023-03-04T08:11:21.675Z,102601.16
2023-03-04T08:13:49.079Z,102609.88
2023-03-04T08:16:19.059Z,102610.41
2023-03-04T08:18:48.133Z,102611.81
2023-03-04T08:21:16.781Z,102613.50
2023-03-04T08:23:43.374Z,102617.47
2023-03-04T08:26:12.818Z,102614.09
2023-03-04T08:28:39.460Z,102614.50
2023-03-04T08:31:06.578Z,102618.53
2023-03-04T08:33:34.202Z,102626.31
2023-03-04T08:36:00.647Z,102618.13
2023-03-04T08:38:27.086Z,102622.75
2023-03-04T08:40:57.503Z,102610.66
2023-03-04T08:43:25.769Z,102610.84
2023-03-04T08:45:54.030Z,102612.88
2023-03-04T08:48:21.595Z,102623.44
2023-03-04T08:50:49.446Z,102618.34
2023-03-04T08:53:17.231Z,102619.03
2023-03-04T08:55:44.081Z,102620.72
2023-03-04T08:58:11.192Z,102616.00
2023-03-04T09:00:40.372Z,102619.50
2023-03-04T09:03:06.900Z,102617.03
2023-03-04T09:05:33.480Z,102616.19
2023-03-04T09:07:59.962Z,102616.25
2023-03-04T09:10:26.381Z,102613.72
2023-03-04T09:12:52.854Z,102610.69
2023-03-04T09:15:19.329Z,102614.00
2023-03-04T09:17:45.860Z,102617.94
2023-03-04T09:20:13.083Z,102600.00
2023-03-04T09:22:41.258Z,102600.22
2023-03-04T09:25:12.059Z,102603.44
2023-03-04T09:27:39.383Z,102602.06
2023-03-04T09:30:06.524Z,102606.78
2023-03-04T09:32:33.177Z,102603.75
2023-03-04T09:34:59.683Z,102604.44
2023-03-04T09:37:26.122Z,102601.91
2023-03-04T09:39:52.522Z,102606.13
2023-03-04T09:42:32.475Z,102614.53
2023-03-04T09:44:59.212Z,102609.84
2023-03-04T09:47:26.787Z,102600.06
2023-03-04T09:50:09.581Z,102601.75
2023-03-04T09:53:02.179Z,102596.53
2023-03-04T09:55:37.762Z,102603.75
2023-03-04T09:58:23.140Z,102593.50
2023-03-04T10:01:05.044Z,102586.06
2023-03-04T10:03:48.213Z,102581.34
2023-03-04T10:06:20.338Z,102582.19
2023-03-04T10:08:54.163Z,102581.53
2023-03-04T10:11:26.715Z,102578.97
2023-03-04T10:14:03.491Z,102571.72
2023-03-04T10:16:36.424Z,102575.91
2023-03-04T10:19:20.137Z,102575.41
2023-03-04T10:21:49.242Z,102575.13
2023-03-04T10:24:18.874Z,102578.66
2023-03-04T10:26:49.351Z,102577.47
2023-03-04T10:29:16.728Z,102574.44
2023-03-04T10:31:44.457Z,102573.78
2023-03-04T10:34:13.079Z,102569.91
2023-03-04T10:36:55.209Z,102568.72
2023-03-04T10:39:38.282Z,102569.56
2023-03-04T10:42:15.588Z,102568.38
2023-03-04T10:44:51.065Z,102570.25
2023-03-04T10:47:17.551Z,102571.31
2023-03-04T10:49:57.466Z,102576.94
2023-03-04T10:52:41.165Z,102575.84
2023-03-04T10:55:16.880Z,102570.53
2023-03-04T10:57:47.566Z,102567.28
2023-03-04T11:00:28.488Z,102554.91
2023-03-04T11:03:23.880Z,102565.88
2023-03-04T11:05:51.273Z,102559.28
2023-03-04T11:08:20.638Z,102561.94
2023-03-04T11:10:47.716Z,102556.13
2023-03-04T11:13:22.854Z,102556.50
2023-03-04T11:15:52.304Z,102555.22
2023-03-04T11:18:34.022Z,102560.28
2023-03-04T11:21:01.107Z,102564.03
2023-03-04T11:23:39.604Z,102561.31
2023-03-04T11:26:12.673Z,102558.44
2023-03-04T11:28:54.280Z,102555.06
2023-03-04T11:31:27.933Z,102561.25
2023-03-04T11:34:28.952Z,102565.22
2023-03-04T11:37:22.852Z,102564.81
2023-03-04T11:39:56.654Z,102555.91
2023-03-04T11:42:41.398Z,102560.25
2023-03-04T11:45:27.785Z,102537.00
2023-03-04T11:48:17.584Z,102540.41
2023-03-04T11:50:54.077Z,102539.75
2023-03-04T11:53:26.630Z,102538.06
2023-03-04T11:56:26.413Z,102534.53
2023-03-04T11:59:05.218Z,102523.50
2023-03-04T12:01:52.319Z,102522.81
2023-03-04T12:04:42.368Z,102527.88
2023-03-04T12:07:17.734Z,102520.81
2023-03-04T12:10:45.998Z,102517.84
2023-03-04T12:13:35.402Z,102511.13
2023-03-04T12:16:32.847Z,102517.50
2023-03-04T12:19:12.038Z,102516.78
2023-03-04T12:22:09.029Z,102501.63
2023-03-04T12:25:03.782Z,102509.75
2023-03-04T12:27:41.977Z,102510.38
2023-03-04T12:30:35.504Z,102507.63
2023-03-04T12:33:23.569Z,102510.03
2023-03-04T12:35:52.730Z,102505.13
2023-03-04T12:38:35.160Z,102499.22
2023-03-04T12:41:28.307Z,102496.22
2023-03-04T12:44:12.440Z,102499.56
2023-03-04T12:46:44.191Z,102503.56
2023-03-04T12:49:25.993Z,102497.78
2023-03-04T12:52:10.413Z,102485.38
2023-03-04T12:54:39.856Z,102478.59
2023-03-04T12:57:06.232Z,102471.22
2023-03-04T12:59:59.638Z,102471.13
2023-03-04T13:02:47.819Z,102469.91
2023-03-04T13:05:36.956Z,102464.50
2023-03-04T13:08:15.372Z,102465.34
2023-03-04T13:10:41.868Z,102479.47
2023-03-04T13:13:38.888Z,102479.56
2023-03-04T13:16:26.806Z,102479.59
2023-03-04T13:18:53.260Z,102476.09
2023-03-04T13:21:25.562Z,102482.84
2023-03-04T13:23:53.704Z,102478.66
2023-03-04T13:26:31.525Z,102475.78
2023-03-04T13:29:12.981Z,102472.41
2023-03-04T13:32:01.183Z,102475.44
2023-03-04T13:34:57.835Z,102475.59
2023-03-04T13:37:30.867Z,102475.06
2023-03-04T13:40:27.333Z,102475.78
2023-03-04T13:42:53.845Z,102472.91
2023-03-04T13:45:35.596Z,102472.44
2023-03-04T13:48:07.056Z,102474.09
2023-03-04T13:50:38.023Z,102455.91
2023-03-04T13:53:42.927Z,102456.94
2023-03-04T13:56:18.328Z,102469.72
2023-03-04T13:58:46.025Z,102455.41
2023-03-04T14:01:25.195Z,102459.28
2023-03-04T14:03:51.718Z,102450.00
2023-03-04T14:06:22.262Z,102453.91
2023-03-04T14:08:49.725Z,102451.53
2023-03-04T14:11:24.299Z,102447.00
2023-03-04T14:13:51.718Z,102447.31
2023-03-04T14:16:23.592Z,102445.44
2023-03-04T14:19:02.458Z,102445.97
2023-03-04T14:21:29.950Z,102439.41
2023-03-04T14:24:21.024Z,102436.56
2023-03-04T14:26:48.264Z,102450.72
2023-03-04T14:29:26.400Z,102445.47
2023-03-04T14:31:54.396Z,102444.13
2023-03-04T14:34:37.678Z,102437.06
2023-03-04T14:37:20.642Z,102434.53
2023-03-04T14:39:50.708Z,102430.00
2023-03-04T14:42:19.531Z,102437.25
2023-03-04T14:44:50.152Z,102437.41
2023-03-04T14:47:23.253Z,102418.22
2023-03-04T14:49:50.729Z,102422.41
2023-03-04T14:52:32.648Z,102424.75
2023-03-04T14:55:14.199Z,102416.50
2023-03-04T14:57:42.520Z,102408.25
2023-03-04T15:00:18.131Z,102416.16
2023-03-04T15:02:44.923Z,102407.41
2023-03-04T15:05:26.415Z,102406.75
2023-03-04T15:07:59.707Z,102416.53
2023-03-04T15:10:36.735Z,102407.28
2023-03-04T15:13:04.983Z,102415.53
2023-03-04T15:15:31.639Z,102413.84
2023-03-04T15:18:18.800Z,102410.13
2023-03-04T15:20:53.898Z,102411.47
2023-03-04T15:23:20.287Z,102403.22
2023-03-04T15:25:50.318Z,102411.31
2023-03-04T15:28:19.183Z,102409.47
2023-03-04T15:30:46.235Z,102410.31
2023-03-04T15:33:13.381Z,102408.94
2023-03-04T15:35:41.704Z,102406.09
2023-03-04T15:38:12.088Z,102405.94
2023-03-04T15:40:44.007Z,102409.13
2023-03-04T15:43:21.956Z,102397.34
2023-03-04T15:45:50.281Z,102398.19
2023-03-04T15:48:18.465Z,102393.66
2023-03-04T15:50:51.189Z,102397.19
2023-03-04T15:53:27.126Z,102403.75
2023-03-04T15:55:54.053Z,102390.47
2023-03-04T15:58:20.692Z,102394.16
2023-03-04T16:00:47.094Z,102390.28
2023-03-04T16:03:18.700Z,102397.03
2023-03-04T16:05:48.373Z,102386.91
2023-03-04T16:08:18.218Z,102382.22
2023-03-04T16:10:45.612Z,102384.56
2023-03-04T16:13:18.004Z,102391.13
2023-03-04T16:15:44.909Z,102390.75
2023-03-04T16:18:13.337Z,102376.78
2023-03-04T16:20:43.174Z,102379.16
2023-03-04T16:23:16.540Z,102382.19
2023-03-04T16:25:44.948Z,102379.81
2023-03-04T16:28:12.947Z,102383.19
2023-03-04T16:30:40.583Z,102387.00
2023-03-04T16:33:07.129Z,102378.06
2023-03-04T16:35:39.034Z,102366.63
2023-03-04T16:38:12.255Z,102378.69
2023-03-04T16:40:39.257Z,102380.25
2023-03-04T16:43:05.670Z,102382.09
2023-03-04T16:45:32.499Z,102376.84
2023-03-04T16:47:58.903Z,102379.25
2023-03-04T16:50:27.314Z,102379.69
2023-03-04T16:52:55.143Z,102367.59
2023-03-04T16:55:27.682Z,102383.19
2023-03-04T16:57:55.676Z,102380.00
2023-03-04T17:00:23.763Z,102381.63
2023-03-04T17:02:56.189Z,102377.59
2023-03-04T17:05:25.741Z,102372.88
2023-03-04T17:07:52.255Z,102370.84
2023-03-04T17:10:19.441Z,102375.84
2023-03-04T17:12:45.904Z,102379.69
2023-03-04T17:15:13.817Z,102381.34
2023-03-04T17:17:41.409Z,102377.28
2023-03-04T17:20:10.053Z,102385.16
2023-03-04T17:22:36.755Z,102386.09
2023-03-04T17:25:03.568Z,102388.75
2023-03-04T17:27:30.490Z,102387.53
2023-03-04T17:29:56.888Z,102387.00
2023-03-04T17:32:23.485Z,102389.31
2023-03-04T17:34:50.022Z,102391.56
2023-03-04T17:37:16.467Z,102395.19
2023-03-04T17:39:43.025Z,102405.38
2023-03-04T17:42:09.474Z,102407.94
2023-03-04T17:44:35.926Z,102406.53
2023-03-04T17:47:02.368Z,102408.16
2023-03-04T17:49:28.830Z,102422.72
2023-03-04T17:51:55.347Z,102423.16
2023-03-04T17:54:21.794Z,102417.13
2023-03-04T17:56:48.259Z,102415.75
2023-03-04T17:59:15.894Z,102417.44
2023-03-04T18:01:45.099Z,102417.81
2023-03-04T18:04:12.619Z,102411.00
2023-03-04T18:06:39.111Z,102417.06
2023-03-04T18:09:06.438Z,102419.91
2023-03-04T18:11:36.454Z,102421.88
2023-03-04T18:14:03.682Z,102420.22
2023-03-04T18:16:30.409Z,102425.56
2023-03-04T18:18:58.683Z,102432.63
2023-03-04T18:21:28.785Z,102433.63
2023-03-04T18:23:56.120Z,102429.53
2023-03-04T18:26:23.487Z,102426.00
2023-03-04T18:28:51.240Z,102431.53
2023-03-04T18:31:19.519Z,102429.84
2023-03-04T18:33:47.018Z,102429.84
2023-03-04T18:36:14.135Z,102422.78
2023-03-04T18:38:41.626Z,102415.75
2023-03-04T18:41:11.558Z,102421.44
2023-03-04T18:43:38.340Z,102413.53
2023-03-04T18:46:09.776Z,102419.44
2023-03-04T18:48:41.784Z,102416.06
2023-03-04T18:51:08.175Z,102407.03
2023-03-04T18:53:34.677Z,102408.69
2023-03-04T18:56:07.162Z,102408.38
2023-03-04T18:58:36.662Z,102398.81
2023-03-04T19:01:07.184Z,102406.69
2023-03-04T19:03:37.446Z,102405.66
2023-03-04T19:06:05.590Z,102410.44
2023-03-04T19:08:32.554Z,102414.28
2023-03-04T19:10:59.166Z,102404.56
2023-03-04T19:13:25.710Z,102410.22
2023-03-04T19:15:54.104Z,102407.53
2023-03-04T19:18:21.208Z,102405.19
2023-03-04T19:20:47.772Z,102403.78
2023-03-04T19:23:15.417Z,102405.06
2023-03-04T19:25:43.401Z,102401.88
2023-03-04T19:28:10.567Z,102394.97
2023-03-04T19:30:38.636Z,102398.25
2023-03-04T19:33:05.344Z,102389.81
2023-03-04T19:35:34.596Z,102395.19
2023-03-04T19:38:01.203Z,102400.53
2023-03-04T19:40:28.396Z,102389.97
2023-03-04T19:42:56.728Z,102385.31
2023-03-04T19:45:25.255Z,102389.81
2023-03-04T19:47:52.098Z,102383.31
2023-03-04T19:50:19.127Z,102382.16
2023-03-04T19:52:45.696Z,102387.53
2023-03-04T19:55:14.921Z,102396.56
2023-03-04T19:57:42.205Z,102398.38
2023-03-04T20:00:11.409Z,102400.22
2023-03-04T20:02:38.008Z,102400.22
2023-03-04T20:05:05.241Z,102394.03
2023-03-04T20:07:31.727Z,102398.69
2023-03-04T20:09:58.282Z,102389.81
2023-03-04T20:12:25.018Z,102392.50
2023-03-04T20:14:51.539Z,102391.81
2023-03-04T20:17:18.326Z,102399.16
2023-03-04T20:19:44.891Z,102394.66
2023-03-04T20:22:13.265Z,102391.97
2023-03-04T20:24:39.760Z,102393.66
2023-03-04T20:27:06.242Z,102397.16
2023-03-04T20:29:32.688Z,102398.84
2023-03-04T20:31:59.300Z,102391.50
2023-03-04T20:34:26.921Z,102395.19
2023-03-04T20:36:53.561Z,102394.50
2023-03-04T20:39:28.460Z,102391.81
2023-03-04T20:41:59.474Z,102393.50
2023-03-04T20:44:26.733Z,102395.47
2023-03-04T20:46:53.461Z,102397.16
2023-03-04T20:49:26.185Z,102399.16
2023-03-04T20:51:55.759Z,102398.16
2023-03-04T20:54:22.265Z,102396.47
2023-03-04T20:56:49.068Z,102396.47
2023-03-04T20:59:15.711Z,102396.78
2023-03-04T21:01:44.413Z,102388.19
2023-03-04T21:04:11.414Z,102388.66
2023-03-04T21:06:38.793Z,102382.91
2023-03-04T21:09:11.646Z,102386.03
2023-03-04T21:11:40.721Z,102378.44
2023-03-04T21:14:29.003Z,102385.38
2023-03-04T21:16:58.067Z,102378.91
2023-03-04T21:19:29.926Z,102379.91
2023-03-04T21:21:57.829Z,102379.91
2023-03-04T21:24:29.665Z,102371.19
2023-03-04T21:26:56.536Z,102372.19
2023-03-04T21:29:25.178Z,102371.34
2023-03-04T21:31:54.371Z,102363.31
2023-03-04T21:34:41.561Z,102364.16
2023-03-04T21:37:09.942Z,102366.81
2023-03-04T21:39:36.435Z,102365.97
2023-03-04T21:42:04.492Z,102366.97
2023-03-04T21:44:45.022Z,102374.03
2023-03-04T21:47:14.807Z,102360.09
2023-03-04T21:49:41.205Z,102357.41
2023-03-04T21:52:07.596Z,102360.25
2023-03-04T21:54:34.083Z,102360.25
2023-03-04T21:57:00.569Z,102367.44
2023-03-04T21:59:27.914Z,102360.25
2023-03-04T22:01:55.154Z,102355.72
2023-03-04T22:04:21.738Z,102360.25
2023-03-04T22:06:48.219Z,102353.88
2023-03-04T22:09:14.667Z,102352.06
2023-03-04T22:11:41.157Z,102350.06
2023-03-04T22:14:07.905Z,102350.22
2023-03-04T22:16:42.429Z,102354.56
2023-03-04T22:19:15.190Z,102344.88
2023-03-04T22:21:41.694Z,102347.53
2023-03-04T22:24:08.234Z,102343.88
2023-03-04T22:26:35.048Z,102341.03
2023-03-04T22:29:02.572Z,102342.03
2023-03-04T22:31:31.886Z,102332.31
2023-03-04T22:34:10.331Z,102328.78
2023-03-04T22:36:40.258Z,102327.13
2023-03-04T22:39:09.714Z,102327.13
2023-03-04T22:41:36.719Z,102318.09
2023-03-04T22:44:03.796Z,102320.59
2023-03-04T22:46:32.434Z,102323.28
2023-03-04T22:49:02.154Z,102326.97
2023-03-04T22:51:28.976Z,102320.75
2023-03-04T22:53:56.502Z,102317.09
2023-03-04T22:56:23.078Z,102318.91
2023-03-04T22:58:49.639Z,102317.94
2023-03-04T23:01:18.156Z,102314.25
2023-03-04T23:03:46.727Z,102313.41
2023-03-04T23:06:16.727Z,102313.25
2023-03-04T23:08:45.311Z,102311.56
2023-03-04T23:11:17.421Z,102299.19
2023-03-04T23:13:44.306Z,102302.56
2023-03-04T23:16:12.607Z,102294.66
2023-03-04T23:18:41.147Z,102291.16
2023-03-04T23:21:13.716Z,102293.81
2023-03-04T23:23:41.176Z,102294.66
2023-03-04T23:26:24.550Z,102290.31
2023-03-04T23:28:51.470Z,102282.44
2023-03-04T23:31:18.799Z,102284.09
2023-03-04T23:33:47.036Z,102285.94
2023-03-04T23:36:16.821Z,102281.59
2023-03-04T23:38:45.029Z,102278.06
2023-03-04T23:41:12.897Z,102284.56
2023-03-04T23:43:39.359Z,102279.38
2023-03-04T23:46:05.939Z,102275.69
2023-03-04T23:48:32.408Z,102277.38
2023-03-04T23:50:59.420Z,102280.91
2023-03-04T23:53:25.973Z,102279.06
2023-03-04T23:55:52.406Z,102272.03
2023-03-04T23:58:18.929Z,102262.31
